Time;durP1;ratioP1;P1;durP2;ratioP2;P2;SDS_P1;SDS_P2;PMS_P1;PMS_P2;Temp;Humidity;BMP_temperature;BMP_pressure;BME280_temperature;BME280_humidity;BME280_pressure;Samples;Min_cycle;Max_cycle;Signal;HPM_P1;HPM_P2
2022/02/17 00:01:50;;;;;;;4.75;1.90;;;18.30;66.90;;;;;;4946682;28;20175;-82
2022/02/17 00:04:18;;;;;;;3.58;1.52;;;18.40;67.30;;;;;;4946565;28;20219;-82
2022/02/17 00:06:45;;;;;;;3.83;1.63;;;18.40;67.30;;;;;;4962619;28;20669;-82
2022/02/17 00:09:12;;;;;;;2.95;1.60;;;18.30;67.40;;;;;;4962735;28;20666;-82
2022/02/17 00:11:41;;;;;;;4.15;1.60;;;18.40;67.20;;;;;;4946201;28;20179;-82
2022/02/17 00:14:08;;;;;;;2.47;1.60;;;18.40;67.30;;;;;;4963207;28;20210;-83
2022/02/17 00:16:35;;;;;;;2.40;1.40;;;18.30;67.10;;;;;;4978400;28;20290;-82
2022/02/17 00:19:03;;;;;;;2.03;1.63;;;18.30;66.60;;;;;;4962144;28;20298;-82
2022/02/17 00:21:30;;;;;;;2.92;1.42;;;18.40;66.70;;;;;;4946573;28;20179;-82
2022/02/17 00:23:57;;;;;;;5.28;1.70;;;18.40;67.10;;;;;;4946393;28;20179;-82
2022/02/17 00:26:24;;;;;;;1.73;1.23;;;18.30;67.10;;;;;;4962161;28;20179;-82
2022/02/17 00:28:51;;;;;;;4.85;1.67;;;18.30;67.00;;;;;;4981391;28;20219;-82
2022/02/17 00:31:19;;;;;;;4.63;1.50;;;18.20;67.00;;;;;;4965474;28;20233;-82
2022/02/17 00:33:46;;;;;;;3.13;1.40;;;18.30;67.00;;;;;;4965979;28;20180;-82
2022/02/17 00:36:13;;;;;;;2.55;1.60;;;18.30;67.30;;;;;;4949915;28;20580;-82
2022/02/17 00:38:40;;;;;;;4.35;1.40;;;18.30;67.30;;;;;;4981908;28;20270;-82
2022/02/17 00:41:07;;;;;;;2.42;1.38;;;18.30;67.30;;;;;;4965605;28;20651;-84
2022/02/17 00:43:34;;;;;;;2.30;1.60;;;18.20;67.50;;;;;;4965545;28;20184;-82
2022/02/17 00:46:02;;;;;;;2.15;1.40;;;18.20;67.30;;;;;;4965450;28;20249;-82
2022/02/17 00:48:29;;;;;;;2.67;1.50;;;18.20;67.40;;;;;;4965500;28;20183;-82
2022/02/17 00:50:57;;;;;;;4.53;1.50;;;18.20;67.30;;;;;;4965617;28;20650;-82
2022/02/17 00:53:24;;;;;;;2.38;1.50;;;18.20;67.50;;;;;;4949380;28;20191;-82
2022/02/17 00:55:51;;;;;;;3.70;1.58;;;18.20;67.70;;;;;;4965340;28;20249;-81
2022/02/17 00:58:18;;;;;;;2.88;1.52;;;18.20;67.80;;;;;;4965108;28;20175;-82
2022/02/17 01:00:45;;;;;;;3.72;1.58;;;18.20;67.70;;;;;;4981178;28;20183;-82
2022/02/17 01:03:12;;;;;;;1.70;1.40;;;18.20;67.50;;;;;;4948980;28;20237;-82
2022/02/17 01:05:39;;;;;;;3.97;1.70;;;18.20;67.60;;;;;;4965310;28;20602;-82
2022/02/17 01:08:06;;;;;;;3.08;1.60;;;18.10;67.60;;;;;;4949111;28;20186;-82
2022/02/17 01:10:32;;;;;;;3.55;1.83;;;18.20;66.90;;;;;;4948895;28;20278;-82
2022/02/17 01:12:59;;;;;;;3.58;1.80;;;18.20;67.40;;;;;;4998042;28;20234;-82
2022/02/17 01:15:29;;;;;;;2.78;1.77;;;18.20;67.10;;;;;;4933511;28;20230;-82
2022/02/17 01:17:56;;;;;;;3.53;1.20;;;18.10;67.80;;;;;;4949137;28;20179;-82
2022/02/17 01:20:22;;;;;;;2.05;1.30;;;18.10;67.40;;;;;;4997918;28;20151;-82
2022/02/17 01:22:49;;;;;;;2.92;1.60;;;18.10;67.20;;;;;;4981794;28;20156;-82
2022/02/17 01:25:15;;;;;;;2.03;1.40;;;18.10;67.80;;;;;;4998180;28;20163;-82
2022/02/17 01:27:42;;;;;;;2.20;1.30;;;18.20;67.60;;;;;;4981473;28;20640;-82
2022/02/17 01:30:09;;;;;;;2.17;1.60;;;18.20;67.50;;;;;;4965615;28;20525;-82
2022/02/17 01:32:35;;;;;;;2.53;1.23;;;18.20;67.60;;;;;;4981390;28;20163;-82
2022/02/17 01:35:01;;;;;;;2.08;1.40;;;18.10;66.90;;;;;;4997841;28;20193;-82
2022/02/17 01:37:27;;;;;;;3.33;1.55;;;18.20;67.20;;;;;;4965247;28;20163;-82
2022/02/17 01:39:55;;;;;;;3.35;1.70;;;18.10;67.00;;;;;;4980885;28;20649;-82
2022/02/17 01:42:23;;;;;;;3.20;1.90;;;18.10;67.30;;;;;;4964882;28;20183;-82
2022/02/17 01:44:50;;;;;;;3.72;1.83;;;18.10;67.60;;;;;;4948603;28;20207;-82
2022/02/17 01:47:18;;;;;;;2.97;1.65;;;18.00;67.40;;;;;;4964616;28;20183;-82
2022/02/17 01:49:44;;;;;;;2.88;1.40;;;18.10;67.90;;;;;;4948841;28;20183;-82
2022/02/17 01:52:12;;;;;;;2.35;1.40;;;18.10;67.60;;;;;;4997416;28;20231;-82
2022/02/17 01:54:39;;;;;;;2.90;1.52;;;18.00;67.80;;;;;;4932218;28;20207;-83
2022/02/17 01:57:09;;;;;;;3.08;1.30;;;18.10;67.70;;;;;;4964256;28;20299;-82
2022/02/17 01:59:35;;;;;;;3.38;1.70;;;18.10;67.70;;;;;;4932802;28;20183;-82
2022/02/17 02:02:02;;;;;;;2.88;1.30;;;18.10;67.70;;;;;;4964296;28;20191;-82
2022/02/17 02:04:29;;;;;;;3.63;1.42;;;18.10;67.80;;;;;;4947594;28;20187;-82
2022/02/17 02:06:57;;;;;;;2.25;1.40;;;18.10;67.40;;;;;;4948053;28;20253;-82
2022/02/17 02:09:23;;;;;;;2.45;1.45;;;18.10;68.00;;;;;;4997166;28;20164;-82
2022/02/17 02:11:49;;;;;;;4.22;1.92;;;18.10;67.50;;;;;;4996848;28;20562;-82
2022/02/17 02:14:16;;;;;;;3.13;1.40;;;18.00;67.70;;;;;;4996888;28;20523;-82
2022/02/17 02:16:42;;;;;;;2.15;1.58;;;18.00;67.70;;;;;;4996707;28;20258;-82
2022/02/17 02:19:09;;;;;;;3.38;1.50;;;18.00;67.80;;;;;;4980568;28;20174;-82
2022/02/17 02:21:35;;;;;;;3.70;1.42;;;18.00;67.60;;;;;;4980645;28;20167;-82
2022/02/17 02:24:01;;;;;;;3.03;1.77;;;18.00;67.40;;;;;;4980688;28;20170;-82
2022/02/17 02:26:27;;;;;;;2.25;1.40;;;18.00;67.60;;;;;;4980613;28;20246;-82
2022/02/17 02:28:54;;;;;;;2.38;1.40;;;18.00;67.40;;;;;;4980494;28;20251;-82
2022/02/17 02:31:20;;;;;;;1.90;1.45;;;18.00;67.70;;;;;;4996643;28;20254;-81
2022/02/17 02:33:46;;;;;;;2.15;1.60;;;18.00;67.70;;;;;;4996506;28;20164;-82
2022/02/17 02:36:12;;;;;;;2.20;1.40;;;18.00;67.70;;;;;;4980330;28;20322;-82
2022/02/17 02:38:37;;;;;;;2.08;1.33;;;18.00;67.30;;;;;;4980352;28;20159;-82
2022/02/17 02:41:05;;;;;;;2.42;1.45;;;18.00;67.00;;;;;;4980641;28;20163;-82
2022/02/17 02:43:31;;;;;;;2.53;1.83;;;18.10;67.40;;;;;;4947266;28;20534;-82
2022/02/17 02:45:57;;;;;;;1.60;1.33;;;18.00;67.40;;;;;;4980121;28;20542;-82
2022/02/17 02:48:23;;;;;;;3.50;1.60;;;18.00;67.70;;;;;;4980412;28;20217;-82
2022/02/17 02:50:49;;;;;;;3.60;1.40;;;18.00;67.10;;;;;;4995573;28;20168;-82
2022/02/17 02:53:16;;;;;;;2.13;1.50;;;18.10;67.20;;;;;;4996453;28;20195;-82
2022/02/17 02:55:44;;;;;;;2.10;1.27;;;18.00;67.20;;;;;;4964494;28;20264;-82
2022/02/17 02:58:11;;;;;;;3.50;1.20;;;18.00;67.40;;;;;;4964152;28;20250;-82
2022/02/17 03:00:36;;;;;;;2.88;1.33;;;18.00;67.00;;;;;;4963934;28;20542;-83
2022/02/17 03:03:03;;;;;;;2.13;1.35;;;18.00;67.00;;;;;;4996429;28;20155;-82
2022/02/17 03:05:29;;;;;;;2.65;1.27;;;18.00;67.20;;;;;;4979682;28;20178;-82
2022/02/17 03:07:56;;;;;;;2.20;1.20;;;18.00;67.30;;;;;;4996108;28;20168;-82
2022/02/17 03:10:23;;;;;;;2.55;1.45;;;18.00;67.60;;;;;;4980027;28;20282;-82
2022/02/17 03:12:49;;;;;;;2.40;1.58;;;18.00;67.60;;;;;;4947300;28;20189;-82
2022/02/17 03:15:16;;;;;;;1.75;1.30;;;18.00;67.40;;;;;;4962978;28;20210;-82
2022/02/17 03:17:43;;;;;;;1.77;1.20;;;18.00;67.30;;;;;;4962911;28;20187;-82
2022/02/17 03:20:08;;;;;;;3.00;1.50;;;18.00;66.90;;;;;;4963042;28;20539;-82
2022/02/17 03:22:36;;;;;;;2.83;1.40;;;18.00;67.00;;;;;;4980157;28;20167;-82
2022/02/17 03:25:04;;;;;;;3.53;1.63;;;18.00;68.10;;;;;;4996039;28;20688;-82
2022/02/17 03:27:30;;;;;;;2.80;1.40;;;18.00;67.40;;;;;;4996007;28;20257;-81
2022/02/17 03:29:56;;;;;;;2.05;1.30;;;18.00;67.30;;;;;;4979584;28;20179;-82
2022/02/17 03:32:22;;;;;;;2.53;1.40;;;18.00;67.30;;;;;;4995811;28;20156;-82
2022/02/17 03:34:48;;;;;;;2.15;1.30;;;18.00;67.20;;;;;;4995766;28;20234;-81
2022/02/17 03:37:14;;;;;;;2.08;1.15;;;18.00;67.30;;;;;;5013500;28;20160;-82
2022/02/17 03:39:39;;;;;;;2.83;1.50;;;18.00;67.00;;;;;;4979469;28;20250;-82
2022/02/17 03:42:06;;;;;;;2.70;1.38;;;18.00;68.00;;;;;;4995741;28;20160;-82
2022/02/17 03:44:32;;;;;;;2.42;1.40;;;18.00;67.60;;;;;;4979374;28;20537;-82
2022/02/17 03:46:57;;;;;;;2.45;1.40;;;18.00;67.50;;;;;;5013570;28;20171;-82
2022/02/17 03:49:23;;;;;;;2.90;1.23;;;18.00;67.00;;;;;;4979124;28;20171;-82
2022/02/17 03:51:50;;;;;;;1.98;1.25;;;18.10;66.80;;;;;;4979496;28;20206;-82
2022/02/17 03:54:16;;;;;;;2.03;1.38;;;18.00;67.20;;;;;;4995634;28;20611;-82
2022/02/17 03:56:42;;;;;;;1.77;1.20;;;18.00;66.80;;;;;;4979394;28;20203;-82
2022/02/17 03:59:08;;;;;;;4.47;1.50;;;18.00;67.40;;;;;;4995700;28;20194;-82
2022/02/17 04:01:34;;;;;;;1.33;1.13;;;17.90;68.30;;;;;;4981410;28;20159;-82
2022/02/17 04:04:01;;;;;;;1.98;1.40;;;17.90;67.40;;;;;;4999382;28;20159;-82
2022/02/17 04:06:26;;;;;;;2.40;1.52;;;17.90;67.60;;;;;;4983084;28;20168;-82
2022/02/17 04:08:52;;;;;;;3.15;1.20;;;17.90;67.50;;;;;;4999514;28;20163;-82
2022/02/17 04:11:18;;;;;;;3.83;1.38;;;17.90;67.10;;;;;;4999260;28;20195;-82
2022/02/17 04:13:44;;;;;;;1.52;1.25;;;17.90;67.20;;;;;;4982931;28;20636;-82
2022/02/17 04:16:12;;;;;;;2.75;1.50;;;17.90;67.20;;;;;;4982836;28;20232;-82
2022/02/17 04:18:40;;;;;;;2.40;1.33;;;17.90;67.40;;;;;;4966529;28;20219;-82
2022/02/17 04:21:08;;;;;;;2.20;1.30;;;17.90;67.10;;;;;;4950216;28;20221;-82
2022/02/17 04:23:37;;;;;;;3.42;1.40;;;17.90;67.60;;;;;;4982426;28;20180;-82
2022/02/17 04:26:05;;;;;;;2.97;1.60;;;17.90;67.60;;;;;;4950481;28;20183;-82
2022/02/17 04:28:33;;;;;;;2.10;1.27;;;17.90;67.30;;;;;;4965876;28;20226;-82
2022/02/17 04:31:00;;;;;;;1.52;1.25;;;17.90;67.70;;;;;;4949929;28;20179;-82
2022/02/17 04:33:28;;;;;;;2.47;1.70;;;17.90;67.60;;;;;;4965990;28;20194;-82
2022/02/17 04:35:55;;;;;;;2.05;1.20;;;17.90;67.40;;;;;;4949618;28;20557;-82
2022/02/17 04:38:20;;;;;;;2.25;1.38;;;17.80;67.10;;;;;;4965706;28;20183;-82
2022/02/17 04:43:28;;;;;;;1.25;1.08;;;17.90;67.80;;;;;;4986900;28;20147;-82
2022/02/17 04:45:53;;;;;;;2.25;1.40;;;17.90;67.40;;;;;;4982488;28;20286;-82
2022/02/17 04:48:21;;;;;;;1.33;1.23;;;17.80;67.20;;;;;;4982291;28;20262;-82
2022/02/17 04:50:48;;;;;;;2.05;1.38;;;17.90;67.30;;;;;;4965376;28;20187;-83
2022/02/17 04:53:15;;;;;;;1.77;1.40;;;17.90;67.70;;;;;;4965525;28;20225;-83
2022/02/17 04:55:42;;;;;;;1.60;1.23;;;17.80;67.10;;;;;;4965210;28;20277;-83
2022/02/17 04:58:10;;;;;;;1.95;1.25;;;17.90;67.00;;;;;;4965328;28;20646;-83
2022/02/17 05:00:37;;;;;;;2.90;1.20;;;17.90;67.00;;;;;;4981480;28;20658;-83
2022/02/17 05:03:04;;;;;;;2.95;1.40;;;17.80;67.60;;;;;;4949224;28;20187;-83
2022/02/17 05:05:31;;;;;;;1.25;1.15;;;17.80;67.40;;;;;;4965004;28;20188;-83
2022/02/17 05:07:56;;;;;;;2.95;1.27;;;17.80;67.50;;;;;;4981299;28;20198;-83
2022/02/17 05:10:23;;;;;;;2.00;1.30;;;17.90;66.90;;;;;;4965720;28;20171;-83
2022/02/17 05:12:49;;;;;;;2.33;1.30;;;17.90;67.10;;;;;;4980563;28;20665;-83
2022/02/17 05:15:16;;;;;;;1.98;1.10;;;17.90;67.40;;;;;;4997967;28;20203;-83
2022/02/17 05:17:43;;;;;;;1.58;1.30;;;17.90;67.10;;;;;;4948631;28;20620;-83
2022/02/17 05:20:09;;;;;;;1.92;1.35;;;17.80;67.70;;;;;;4964774;28;20175;-83
2022/02/17 05:22:39;;;;;;;2.78;1.85;;;17.80;67.60;;;;;;4965703;28;20213;-83
2022/02/17 05:25:05;;;;;;;2.22;1.10;;;17.80;67.80;;;;;;4965449;28;20167;-83
2022/02/17 05:27:31;;;;;;;3.20;1.40;;;17.80;67.60;;;;;;4997691;28;20223;-83
2022/02/17 05:29:57;;;;;;;1.73;1.13;;;17.80;67.60;;;;;;4997867;28;20305;-82
2022/02/17 05:32:23;;;;;;;1.95;1.20;;;17.90;66.90;;;;;;5015154;28;20183;-83
2022/02/17 05:34:50;;;;;;;1.30;1.10;;;17.90;66.50;;;;;;4948583;28;20530;-82
2022/02/17 05:37:16;;;;;;;1.75;1.10;;;18.00;65.00;;;;;;4980816;28;20566;-83
2022/02/17 05:39:42;;;;;;;1.85;1.08;;;18.10;64.90;;;;;;4997547;28;20160;-83
2022/02/17 05:42:10;;;;;;;1.40;1.13;;;18.10;65.90;;;;;;4948485;28;20179;-83
2022/02/17 05:44:37;;;;;;;2.15;1.00;;;18.20;64.70;;;;;;4980779;28;20183;-83
2022/02/17 05:47:06;;;;;;;1.50;1.23;;;18.20;65.10;;;;;;4980795;28;20180;-83
2022/02/17 05:49:33;;;;;;;1.25;1.15;;;18.20;65.20;;;;;;4949225;28;20187;-83
2022/02/17 05:52:01;;;;;;;2.38;1.27;;;18.20;64.50;;;;;;4980461;28;20195;-83
2022/02/17 05:54:28;;;;;;;2.13;1.00;;;18.20;64.90;;;;;;4964301;28;20187;-83
2022/02/17 05:56:55;;;;;;;1.15;1.05;;;18.20;65.10;;;;;;4948061;28;20214;-83
2022/02/17 05:59:24;;;;;;;2.53;1.40;;;18.20;64.60;;;;;;4980260;28;20179;-83
2022/02/17 06:01:53;;;;;;;2.55;1.30;;;18.20;64.00;;;;;;4980566;28;20195;-83
2022/02/17 06:04:22;;;;;;;1.30;1.10;;;18.30;64.60;;;;;;4980401;28;20269;-83
2022/02/17 06:06:47;;;;;;;1.45;1.10;;;18.30;63.70;;;;;;4960740;28;20216;-83
2022/02/17 06:09:15;;;;;;;1.40;0.95;;;18.40;63.60;;;;;;4994132;28;20219;-82
2022/02/17 06:11:42;;;;;;;1.33;1.08;;;18.30;64.20;;;;;;4992930;28;20188;-82
2022/02/17 06:14:10;;;;;;;1.63;1.10;;;18.30;64.60;;;;;;4993005;28;20539;-82
2022/02/17 06:16:37;;;;;;;1.98;1.10;;;18.30;64.40;;;;;;4976878;28;20216;-82
2022/02/17 06:19:03;;;;;;;1.55;1.08;;;18.30;64.60;;;;;;4976581;28;20651;-82
2022/02/17 06:21:28;;;;;;;1.52;1.05;;;18.20;64.30;;;;;;4994958;28;20174;-82
2022/02/17 06:23:54;;;;;;;1.55;1.15;;;18.30;64.30;;;;;;4994400;28;20218;-83
2022/02/17 06:26:20;;;;;;;1.65;1.20;;;18.30;64.50;;;;;;4976389;28;20247;-82
2022/02/17 06:28:45;;;;;;;1.63;0.98;;;18.20;64.70;;;;;;4994309;28;20564;-82
2022/02/17 06:31:11;;;;;;;1.85;1.30;;;18.30;64.70;;;;;;4993410;28;20203;-83
2022/02/17 06:33:38;;;;;;;1.58;1.17;;;18.30;64.10;;;;;;4993328;28;20159;-84
2022/02/17 06:36:05;;;;;;;1.50;1.20;;;18.30;64.50;;;;;;5011609;28;20187;-82
2022/02/17 06:38:32;;;;;;;1.40;1.15;;;18.30;64.10;;;;;;4996646;28;20615;-83
2022/02/17 06:40:57;;;;;;;1.65;1.20;;;18.30;64.30;;;;;;4996697;28;20615;-82
2022/02/17 06:43:24;;;;;;;1.00;0.80;;;18.30;64.10;;;;;;4980241;28;20160;-82
2022/02/17 06:45:50;;;;;;;2.30;1.50;;;18.30;63.60;;;;;;4964365;28;20182;-82
2022/02/17 06:48:16;;;;;;;1.45;0.90;;;18.40;64.20;;;;;;4980333;28;20175;-82
2022/02/17 06:50:41;;;;;;;1.90;1.20;;;18.40;64.10;;;;;;4963764;28;20594;-82
2022/02/17 06:53:07;;;;;;;1.40;1.00;;;18.30;63.40;;;;;;4980416;28;20171;-83
2022/02/17 06:55:34;;;;;;;0.93;0.85;;;18.40;63.80;;;;;;4980215;28;20202;-83
2022/02/17 06:57:59;;;;;;;1.80;1.00;;;18.40;63.70;;;;;;4996171;28;20191;-82
2022/02/17 07:00:25;;;;;;;1.20;1.00;;;18.40;63.70;;;;;;4996275;28;20186;-83
2022/02/17 07:02:52;;;;;;;1.80;1.20;;;18.40;64.00;;;;;;4979576;28;20324;-83
2022/02/17 07:05:22;;;;;;;1.30;1.05;;;18.40;63.70;;;;;;4980369;28;20610;-83
2022/02/17 07:07:50;;;;;;;1.35;1.10;;;18.40;63.20;;;;;;4963504;28;20209;-84
2022/02/17 07:10:54;;;;;;;1.88;1.17;;;18.40;63.30;;;;;;4963796;28;20171;-82
2022/02/17 07:13:03;;;;;;;1.63;1.27;;;18.40;63.40;;;;;;4998450;28;20198;-83
2022/02/17 07:15:35;;;;;;;3.03;1.20;;;18.50;63.50;;;;;;4963704;28;20221;-83
2022/02/17 07:18:05;;;;;;;2.20;1.00;;;18.40;63.60;;;;;;4963225;28;20258;-82
2022/02/17 07:20:31;;;;;;;1.10;1.00;;;18.40;64.40;;;;;;4996521;28;20179;-83
2022/02/17 07:22:57;;;;;;;0.88;0.80;;;18.40;63.30;;;;;;4979823;28;20155;-80
2022/02/17 07:25:23;;;;;;;1.33;1.13;;;18.40;63.30;;;;;;4976650;28;20164;-82
2022/02/17 07:27:49;;;;;;;1.55;1.30;;;18.40;63.70;;;;;;4992392;28;20223;-82
2022/02/17 07:30:14;;;;;;;1.10;1.00;;;18.50;64.50;;;;;;4976610;28;20659;-83
2022/02/17 07:32:42;;;;;;;1.30;0.95;;;18.40;64.50;;;;;;4992622;28;20156;-83
2022/02/17 07:35:08;;;;;;;1.27;1.13;;;18.40;64.20;;;;;;4984810;28;20191;-83
2022/02/17 07:37:35;;;;;;;1.35;1.00;;;18.40;63.80;;;;;;4995820;28;20167;-83
2022/02/17 07:40:01;;;;;;;1.70;1.02;;;18.50;63.40;;;;;;4966382;28;20179;-82
2022/02/17 07:42:28;;;;;;;1.63;1.15;;;18.40;63.80;;;;;;5000007;28;20217;-82
2022/02/17 07:44:59;;;;;;;1.98;1.15;;;18.50;63.10;;;;;;4982588;28;20314;-82
2022/02/17 07:47:26;;;;;;;1.55;1.10;;;18.50;62.90;;;;;;4967305;28;20700;-83
2022/02/17 07:49:54;;;;;;;1.00;0.90;;;18.50;62.90;;;;;;4999908;28;20168;-83
2022/02/17 07:52:21;;;;;;;2.10;1.00;;;18.50;62.70;;;;;;4984056;28;20147;-84
2022/02/17 07:54:49;;;;;;;1.83;1.02;;;18.50;62.90;;;;;;5017059;28;20240;-82
2022/02/17 07:57:17;;;;;;;3.67;0.90;;;18.50;62.90;;;;;;4982731;28;20740;-83
2022/02/17 07:59:43;;;;;;;2.28;0.98;;;18.50;63.40;;;;;;4982304;28;20194;-83
2022/02/17 08:02:09;;;;;;;1.40;1.13;;;18.50;62.90;;;;;;4999408;28;20160;-82
2022/02/17 08:04:35;;;;;;;1.40;0.90;;;18.50;62.90;;;;;;4934391;28;20190;-82
2022/02/17 08:07:03;;;;;;;1.00;0.90;;;18.50;63.10;;;;;;4983180;28;20586;-82
2022/02/17 08:09:29;;;;;;;1.05;0.95;;;18.50;62.90;;;;;;4983175;28;20179;-83
2022/02/17 08:11:54;;;;;;;0.85;0.80;;;18.50;63.00;;;;;;4982907;28;20167;-83
2022/02/17 08:14:20;;;;;;;1.42;0.95;;;18.50;62.30;;;;;;4982934;28;20159;-82
2022/02/17 08:16:46;;;;;;;1.10;1.00;;;18.50;62.60;;;;;;4966726;28;20191;-82
2022/02/17 08:19:11;;;;;;;1.45;1.08;;;18.50;63.10;;;;;;4966680;28;20167;-82
2022/02/17 08:21:37;;;;;;;0.98;0.77;;;18.50;62.60;;;;;;4983333;28;20225;-83
2022/02/17 08:24:03;;;;;;;2.17;1.00;;;18.50;62.40;;;;;;4999304;28;20156;-83
2022/02/17 08:26:29;;;;;;;1.65;1.20;;;18.60;63.00;;;;;;4998960;28;20653;-83
2022/02/17 08:28:57;;;;;;;1.48;1.08;;;18.50;63.00;;;;;;4998848;28;20243;-83
2022/02/17 08:31:27;;;;;;;1.50;1.10;;;18.60;63.40;;;;;;4999281;28;20614;-82
2022/02/17 08:33:53;;;;;;;1.13;1.00;;;18.50;63.10;;;;;;4998912;28;20159;-83
2022/02/17 08:36:19;;;;;;;1.50;1.20;;;18.50;63.20;;;;;;4998725;28;20191;-82
2022/02/17 08:38:45;;;;;;;0.93;0.82;;;18.50;62.90;;;;;;4982699;28;20520;-83
2022/02/17 08:41:11;;;;;;;2.03;1.00;;;18.50;62.90;;;;;;4999169;28;20254;-82
2022/02/17 08:43:37;;;;;;;2.13;1.13;;;18.50;62.90;;;;;;4998651;28;20156;-83
2022/02/17 08:46:03;;;;;;;0.75;0.73;;;18.50;63.10;;;;;;4982475;28;20492;-83
2022/02/17 08:48:28;;;;;;;1.90;1.20;;;18.50;63.00;;;;;;5014961;28;20159;-85
2022/02/17 08:50:54;;;;;;;0.93;0.90;;;18.50;63.20;;;;;;4998603;28;20238;-82
2022/02/17 08:53:19;;;;;;;1.10;1.00;;;18.50;62.90;;;;;;5014440;28;20163;-82
2022/02/17 08:55:45;;;;;;;1.15;0.80;;;18.50;63.10;;;;;;4996709;28;20614;-83
2022/02/17 08:58:11;;;;;;;0.88;0.80;;;18.50;62.90;;;;;;5014866;28;20156;-83
2022/02/17 09:00:37;;;;;;;1.55;1.00;;;18.50;62.50;;;;;;4997697;28;20152;-84
2022/02/17 09:03:04;;;;;;;1.88;0.93;;;18.50;61.40;;;;;;4982111;28;20563;-83
2022/02/17 09:05:32;;;;;;;1.35;1.10;;;18.50;62.60;;;;;;4982599;28;20205;-82
2022/02/17 09:07:58;;;;;;;2.47;1.00;;;18.60;62.60;;;;;;5019123;28;20581;-82
2022/02/17 09:10:24;;;;;;;1.35;0.90;;;18.50;62.60;;;;;;5000684;28;20566;-81
2022/02/17 09:12:51;;;;;;;1.00;0.90;;;18.50;63.00;;;;;;4984486;28;20258;-83
2022/02/17 09:15:17;;;;;;;1.13;0.93;;;18.50;62.90;;;;;;4934703;28;20210;-83
2022/02/17 09:17:46;;;;;;;1.17;0.90;;;18.60;60.50;;;;;;4982392;28;20164;-83
2022/02/17 09:20:12;;;;;;;0.98;0.90;;;18.60;61.70;;;;;;4967923;28;20159;-84
2022/02/17 09:22:37;;;;;;;0.80;0.80;;;18.60;59.70;;;;;;4998776;28;20625;-84
2022/02/17 09:25:04;;;;;;;1.25;0.80;;;18.60;60.70;;;;;;5015921;28;20238;-82
2022/02/17 09:27:29;;;;;;;1.33;1.00;;;18.60;60.70;;;;;;4966366;28;20219;-83
2022/02/17 09:29:55;;;;;;;1.02;0.93;;;18.70;60.80;;;;;;4982753;28;20221;-84
2022/02/17 09:32:22;;;;;;;1.13;0.95;;;18.60;61.90;;;;;;4968759;28;20278;-82
2022/02/17 09:34:47;;;;;;;4.28;1.05;;;18.60;61.00;;;;;;4982819;28;20619;-82
2022/02/17 09:37:13;;;;;;;1.15;0.80;;;18.70;59.70;;;;;;4966835;28;20198;-82
2022/02/17 09:39:39;;;;;;;1.00;0.80;;;18.70;61.80;;;;;;4998741;28;20611;-83
2022/02/17 09:42:05;;;;;;;0.98;0.80;;;18.70;60.30;;;;;;4998876;28;20164;-83
2022/02/17 09:44:33;;;;;;;0.70;0.70;;;18.70;61.20;;;;;;4982537;28;20166;-84
2022/02/17 09:46:59;;;;;;;1.92;1.10;;;18.70;60.50;;;;;;4966239;28;20211;-83
2022/02/17 09:49:24;;;;;;;1.02;0.90;;;18.80;59.70;;;;;;5015476;28;20155;-83
2022/02/17 09:51:51;;;;;;;1.10;1.00;;;18.80;61.80;;;;;;4981792;28;20168;-83
2022/02/17 09:54:17;;;;;;;1.58;0.85;;;18.80;60.20;;;;;;4981807;28;20235;-82
2022/02/17 09:56:43;;;;;;;1.23;0.90;;;18.80;61.80;;;;;;4965185;28;20195;-82
2022/02/17 09:59:09;;;;;;;1.13;0.98;;;18.80;60.40;;;;;;4965919;28;20587;-82
2022/02/17 10:01:35;;;;;;;0.88;0.80;;;18.80;61.30;;;;;;4982530;28;20602;-82
2022/02/17 10:04:14;;;;;;;0.88;0.73;;;18.80;61.40;;;;;;4981742;28;20198;-84
2022/02/17 10:06:48;;;;;;;1.20;0.80;;;18.80;61.40;;;;;;4981751;28;20167;-82
2022/02/17 10:09:14;;;;;;;1.42;1.00;;;18.80;60.00;;;;;;4990425;28;20165;-83
2022/02/17 10:11:41;;;;;;;1.17;0.82;;;18.80;60.80;;;;;;4981486;28;20155;-84
2022/02/17 10:14:09;;;;;;;1.52;0.95;;;18.80;60.30;;;;;;4997765;28;20151;-83
2022/02/17 10:16:59;;;;;;;1.00;0.90;;;18.80;60.40;;;;;;4997183;28;20589;-82
2022/02/17 10:19:26;;;;;;;1.20;0.85;;;18.90;59.30;;;;;;4980551;28;20163;-83
2022/02/17 10:22:00;;;;;;;1.30;1.00;;;18.90;60.20;;;;;;4981238;28;20162;-82
2022/02/17 10:24:31;;;;;;;1.05;0.80;;;18.90;60.40;;;;;;4981580;28;20238;-84
2022/02/17 10:27:03;;;;;;;1.05;0.88;;;18.80;61.20;;;;;;4996958;28;20238;-84
2022/02/17 10:29:29;;;;;;;0.93;0.73;;;18.90;60.40;;;;;;4965366;28;20626;-83
2022/02/17 10:32:05;;;;;;;0.88;0.88;;;18.90;60.90;;;;;;4980252;28;20183;-82
2022/02/17 10:34:31;;;;;;;0.77;0.77;;;18.90;61.20;;;;;;4980231;28;20178;-82
2022/02/17 10:36:57;;;;;;;1.52;1.10;;;18.80;60.20;;;;;;5013679;28;20191;-83
2022/02/17 10:39:26;;;;;;;0.77;0.60;;;18.90;60.50;;;;;;4980429;28;20258;-84
2022/02/17 10:41:54;;;;;;;1.00;0.80;;;19.00;59.90;;;;;;4980635;28;20202;-83
2022/02/17 10:44:23;;;;;;;3.10;1.00;;;19.00;59.70;;;;;;4980289;28;20614;-83
2022/02/17 10:46:49;;;;;;;0.80;0.80;;;18.90;61.00;;;;;;4980002;28;20175;-83
2022/02/17 10:49:16;;;;;;;1.13;0.73;;;18.90;61.50;;;;;;5013742;28;20189;-83
2022/02/17 10:51:42;;;;;;;1.25;1.05;;;18.90;60.40;;;;;;4996137;28;20221;-82
2022/02/17 10:54:08;;;;;;;1.85;0.80;;;18.90;59.40;;;;;;4980154;28;20175;-83
2022/02/17 10:56:35;;;;;;;1.10;1.00;;;19.00;59.90;;;;;;4980708;28;20203;-83
2022/02/17 10:59:03;;;;;;;2.25;0.93;;;18.90;60.10;;;;;;4980171;28;20163;-83
2022/02/17 11:01:29;;;;;;;0.90;0.80;;;19.00;59.30;;;;;;4996589;28;20158;-82
2022/02/17 11:03:55;;;;;;;1.58;0.88;;;19.00;59.50;;;;;;4995875;28;20162;-82
2022/02/17 11:06:21;;;;;;;1.08;0.98;;;19.00;60.50;;;;;;4996219;28;20171;-82
2022/02/17 11:08:48;;;;;;;1.02;0.90;;;19.00;59.90;;;;;;4995853;28;20163;-83
2022/02/17 11:11:14;;;;;;;0.95;0.80;;;19.00;60.10;;;;;;4995474;28;20155;-84
2022/02/17 11:13:43;;;;;;;1.30;0.98;;;19.00;59.80;;;;;;4979707;28;20170;-83
2022/02/17 11:16:10;;;;;;;0.80;0.63;;;19.00;60.10;;;;;;4980494;28;20563;-84
2022/02/17 11:18:36;;;;;;;1.25;0.80;;;19.00;59.50;;;;;;4980056;28;20163;-84
2022/02/17 11:21:02;;;;;;;1.13;0.80;;;19.00;60.00;;;;;;4980288;28;20171;-82
2022/02/17 11:23:31;;;;;;;0.90;0.90;;;19.00;59.30;;;;;;5013380;28;20170;-83
2022/02/17 11:25:57;;;;;;;1.63;0.93;;;19.00;60.00;;;;;;4995813;28;20607;-83
2022/02/17 11:28:37;;;;;;;1.98;0.80;;;19.00;59.80;;;;;;4992487;28;20695;-83
2022/02/17 11:31:06;;;;;;;0.90;0.80;;;19.00;60.30;;;;;;4963300;28;20182;-83
2022/02/17 11:33:40;;;;;;;1.63;0.98;;;19.00;60.00;;;;;;4979492;28;20530;-82
2022/02/17 11:36:30;;;;;;;1.10;1.00;;;19.00;60.40;;;;;;4978796;28;20219;-83
2022/02/17 11:38:57;;;;;;;1.50;1.00;;;19.00;60.20;;;;;;4997191;28;20677;-83
2022/02/17 11:41:27;;;;;;;1.45;0.93;;;18.90;61.50;;;;;;4978984;28;20206;-84
2022/02/17 11:44:18;;;;;;;1.10;0.82;;;19.00;60.90;;;;;;4995863;28;20155;-84
2022/02/17 11:46:48;;;;;;;1.00;0.90;;;19.00;59.70;;;;;;4985011;28;20644;-83
2022/02/17 11:49:40;;;;;;;1.35;1.02;;;19.00;60.70;;;;;;5013139;28;20162;-82
2022/02/17 11:52:11;;;;;;;1.08;0.98;;;18.90;61.20;;;;;;5013063;28;20297;-82
2022/02/17 11:54:37;;;;;;;1.13;0.77;;;19.00;60.60;;;;;;4995632;28;20262;-84
2022/02/17 11:57:04;;;;;;;2.05;1.05;;;19.00;60.10;;;;;;4980533;28;20206;-83
2022/02/17 11:59:30;;;;;;;1.00;0.82;;;19.00;59.60;;;;;;5014478;28;20159;-83
2022/02/17 12:01:59;;;;;;;0.85;0.82;;;19.00;60.90;;;;;;4996765;28;20164;-83
2022/02/17 12:04:27;;;;;;;1.27;0.70;;;19.00;60.40;;;;;;4997369;28;20156;-82
2022/02/17 12:06:56;;;;;;;1.65;1.10;;;19.00;59.80;;;;;;4981786;28;20259;-83
2022/02/17 12:09:44;;;;;;;0.80;0.80;;;19.00;59.50;;;;;;4998608;28;20164;-83
2022/02/17 12:12:11;;;;;;;1.35;0.90;;;19.00;59.80;;;;;;4983006;28;20171;-82
2022/02/17 12:14:38;;;;;;;5.50;0.93;;;19.10;59.90;;;;;;4997417;28;20175;-83
2022/02/17 12:17:04;;;;;;;0.88;0.88;;;19.00;59.60;;;;;;5015197;28;20589;-83
2022/02/17 12:19:46;;;;;;;;;;;;;;;;;;;;;
2022/02/17 12:22:15;;;;;;;2.15;0.95;;;19.10;59.90;;;;;;4982851;28;20291;-84
2022/02/17 12:24:44;;;;;;;0.98;0.80;;;19.00;60.00;;;;;;5000947;28;20150;-83
2022/02/17 12:27:13;;;;;;;1.30;1.00;;;19.00;59.00;;;;;;4984328;28;20234;-81
2022/02/17 12:29:42;;;;;;;1.08;0.98;;;19.10;59.70;;;;;;4999044;28;20183;-81
2022/02/17 12:32:18;;;;;;;1.20;0.77;;;19.10;59.20;;;;;;4982522;28;20167;-85
2022/02/17 12:35:17;;;;;;;0.95;0.70;;;19.10;59.00;;;;;;4982481;28;20392;-86
2022/02/17 12:38:01;;;;;;;2.95;0.80;;;19.10;59.00;;;;;;4973704;28;20290;-82
2022/02/17 12:40:34;;;;;;;1.25;1.00;;;19.10;58.60;;;;;;4909963;29;20260;-84
2022/02/17 12:43:12;;;;;;;0.95;0.88;;;19.10;60.30;;;;;;4923642;29;20208;-81
2022/02/17 12:45:42;;;;;;;0.80;0.80;;;19.10;59.40;;;;;;4926144;29;20169;-82
2022/02/17 12:48:16;;;;;;;0.80;0.75;;;19.10;58.90;;;;;;4941489;29;20180;-84
2022/02/17 12:50:43;;;;;;;1.67;0.90;;;19.10;58.10;;;;;;4926458;29;20559;-82
2022/02/17 12:53:09;;;;;;;0.88;0.88;;;19.10;58.90;;;;;;4925450;29;20232;-83